Time;durP1;ratioP1;P1;durP2;ratioP2;P2;SDS_P1;SDS_P2;PMS_P1;PMS_P2;Temp;Humidity;BMP_temperature;BMP_pressure;BME280_temperature;BME280_humidity;BME280_pressure;Samples;Min_cycle;Max_cycle;Signal;HPM_P1;HPM_P2
2022/07/29 00:01:09;;;;;;;3.75;1.42;;;21.00;78.50;;;;;;5091112;28;20217;-78
2022/07/29 00:03:36;;;;;;;2.85;1.65;;;20.90;79.10;;;;;;5090171;28;20193;-77
2022/07/29 00:06:04;;;;;;;2.83;1.20;;;21.00;79.00;;;;;;5082891;28;20216;-77
2022/07/29 00:08:31;;;;;;;3.70;1.42;;;20.80;79.10;;;;;;5093010;28;20200;-78
2022/07/29 00:10:59;;;;;;;4.43;1.58;;;20.70;79.80;;;;;;5089798;28;20587;-77
2022/07/29 00:13:28;;;;;;;2.78;1.27;;;20.50;81.30;;;;;;5086939;28;20203;-77
2022/07/29 00:15:55;;;;;;;1.42;1.23;;;20.60;81.10;;;;;;5091035;28;20245;-77
2022/07/29 00:18:22;;;;;;;3.85;1.65;;;20.60;81.10;;;;;;5084903;28;20209;-77
2022/07/29 00:20:50;;;;;;;4.75;1.70;;;20.50;81.60;;;;;;5088774;28;20217;-78
2022/07/29 00:23:17;;;;;;;2.47;1.23;;;20.60;81.70;;;;;;5089067;28;20194;-78
2022/07/29 00:25:45;;;;;;;3.60;1.48;;;20.50;81.80;;;;;;5107235;28;20208;-78
2022/07/29 00:28:12;;;;;;;2.83;1.27;;;20.50;81.60;;;;;;5087140;28;20185;-78
2022/07/29 00:30:42;;;;;;;1.80;1.30;;;20.40;82.40;;;;;;5087017;28;20743;-77
2022/07/29 00:33:10;;;;;;;4.32;1.83;;;20.40;82.70;;;;;;5090738;28;20639;-78
2022/07/29 00:35:46;;;;;;;5.32;1.58;;;20.40;82.70;;;;;;5089775;28;20197;-78
2022/07/29 00:38:14;;;;;;;2.47;1.33;;;20.20;83.20;;;;;;5092706;28;20188;-78
2022/07/29 00:40:43;;;;;;;4.95;1.67;;;20.30;83.70;;;;;;5087909;28;20228;-77
2022/07/29 00:43:11;;;;;;;4.03;1.50;;;20.20;84.40;;;;;;5084471;28;20197;-77
2022/07/29 00:45:38;;;;;;;3.13;1.40;;;20.30;84.00;;;;;;5090151;28;20671;-77
2022/07/29 00:48:08;;;;;;;4.05;1.50;;;20.30;84.30;;;;;;5083776;28;20236;-77
2022/07/29 00:50:36;;;;;;;2.45;1.58;;;20.30;84.70;;;;;;5089275;28;20216;-77
2022/07/29 00:53:05;;;;;;;5.07;1.30;;;20.40;84.60;;;;;;5081654;28;20197;-77
2022/07/29 00:55:33;;;;;;;4.20;1.23;;;20.50;84.50;;;;;;5088399;28;20212;-77
2022/07/29 00:58:00;;;;;;;3.15;1.20;;;20.40;84.20;;;;;;5091268;28;20193;-77
2022/07/29 01:00:29;;;;;;;3.30;1.42;;;20.20;84.90;;;;;;5090131;28;20560;-77
2022/07/29 01:02:57;;;;;;;2.60;1.45;;;20.10;86.10;;;;;;5084911;28;20197;-77
2022/07/29 01:05:28;;;;;;;4.80;1.40;;;20.10;86.10;;;;;;5098766;28;20204;-77
2022/07/29 01:07:57;;;;;;;2.47;1.33;;;20.10;86.50;;;;;;5085845;28;20206;-78
2022/07/29 01:10:25;;;;;;;3.72;1.33;;;20.20;86.30;;;;;;5084234;28;20220;-77
2022/07/29 01:12:55;;;;;;;2.92;1.52;;;20.10;86.20;;;;;;5080669;28;20575;-78
2022/07/29 01:15:23;;;;;;;3.90;1.52;;;19.70;88.10;;;;;;5079228;28;20220;-77
2022/07/29 01:17:58;;;;;;;4.35;1.45;;;19.90;88.10;;;;;;5083835;28;20547;-77
2022/07/29 01:20:40;;;;;;;3.13;1.38;;;19.80;88.50;;;;;;5086488;28;20213;-77
2022/07/29 01:23:43;;;;;;;2.22;1.35;;;19.90;88.00;;;;;;5081623;28;20196;-77
2022/07/29 01:26:33;;;;;;;1.42;1.15;;;19.90;88.30;;;;;;5063636;28;20567;-77
2022/07/29 01:29:07;;;;;;;5.45;1.60;;;19.80;89.40;;;;;;5087414;28;20196;-77
2022/07/29 01:31:44;;;;;;;3.83;1.50;;;19.70;90.00;;;;;;5099178;28;20217;-77
2022/07/29 01:34:18;;;;;;;4.07;1.40;;;19.90;90.00;;;;;;5088474;28;20192;-77
2022/07/29 01:36:49;;;;;;;2.58;1.25;;;20.10;89.10;;;;;;5089596;28;20219;-77
2022/07/29 01:39:20;;;;;;;4.20;1.65;;;20.00;89.00;;;;;;5083481;28;20560;-77
2022/07/29 01:41:53;;;;;;;2.53;1.50;;;19.80;89.00;;;;;;5074447;28;20232;-77
2022/07/29 01:44:29;;;;;;;2.85;1.30;;;20.00;88.80;;;;;;5083897;28;20566;-77
2022/07/29 01:47:02;;;;;;;4.45;1.70;;;20.10;89.00;;;;;;5089446;28;20212;-77
2022/07/29 01:49:36;;;;;;;2.63;1.27;;;20.20;88.80;;;;;;5078376;28;20201;-77
2022/07/29 01:52:08;;;;;;;2.55;1.45;;;20.00;89.40;;;;;;5084575;28;20558;-77
2022/07/29 01:54:42;;;;;;;2.85;1.42;;;20.10;89.20;;;;;;5090645;28;20197;-77
2022/07/29 01:57:14;;;;;;;1.52;1.10;;;19.90;89.60;;;;;;5091754;28;20217;-78
2022/07/29 01:59:44;;;;;;;4.78;1.48;;;19.70;90.30;;;;;;5090279;28;20201;-77
2022/07/29 02:02:12;;;;;;;3.20;1.40;;;19.70;90.30;;;;;;5087827;28;20197;-77
2022/07/29 02:04:41;;;;;;;3.10;1.17;;;19.60;90.80;;;;;;5092239;28;20670;-77
2022/07/29 02:07:14;;;;;;;2.40;1.30;;;19.50;91.20;;;;;;5095451;28;20205;-77
2022/07/29 02:09:43;;;;;;;2.65;1.40;;;19.50;91.60;;;;;;5087641;28;20223;-77
2022/07/29 02:12:12;;;;;;;3.28;1.42;;;19.50;92.00;;;;;;5089154;28;20184;-77
2022/07/29 02:14:44;;;;;;;1.90;1.13;;;19.60;91.60;;;;;;5090225;28;20213;-77
2022/07/29 02:17:13;;;;;;;2.60;1.10;;;20.00;91.20;;;;;;5094374;28;20658;-77
2022/07/29 02:19:42;;;;;;;2.05;1.45;;;20.30;90.60;;;;;;5094659;28;20555;-77
2022/07/29 02:22:12;;;;;;;2.25;1.33;;;20.20;90.10;;;;;;5088877;28;20201;-77
2022/07/29 02:24:41;;;;;;;2.97;1.73;;;20.20;90.10;;;;;;5090810;28;20278;-77
2022/07/29 02:27:10;;;;;;;3.42;1.48;;;19.80;90.60;;;;;;5094132;28;20205;-77
2022/07/29 02:29:39;;;;;;;4.72;1.77;;;19.70;91.20;;;;;;5093130;28;20201;-77
2022/07/29 02:32:11;;;;;;;1.75;1.27;;;19.40;91.50;;;;;;5089323;28;20193;-77
2022/07/29 02:34:40;;;;;;;2.63;1.33;;;19.80;92.00;;;;;;5089456;28;20558;-78
2022/07/29 02:37:10;;;;;;;2.90;1.30;;;20.00;91.20;;;;;;5095433;28;20204;-77
2022/07/29 02:39:39;;;;;;;1.88;1.40;;;19.80;91.10;;;;;;5094212;28;20541;-77
2022/07/29 02:42:10;;;;;;;7.13;1.83;;;20.00;91.60;;;;;;5088989;28;20197;-77
2022/07/29 02:44:38;;;;;;;3.42;1.42;;;20.30;90.90;;;;;;5094166;28;20205;-77
2022/07/29 02:47:17;;;;;;;1.85;1.40;;;20.40;90.50;;;;;;5093192;28;20212;-77
2022/07/29 02:49:51;;;;;;;2.95;1.63;;;20.40;90.60;;;;;;5088256;28;20595;-77
2022/07/29 02:52:24;;;;;;;2.95;1.33;;;20.40;90.10;;;;;;5089024;28;20197;-77
2022/07/29 02:54:56;;;;;;;6.10;1.88;;;20.30;90.10;;;;;;5094012;28;20204;-77
2022/07/29 02:57:32;;;;;;;10.55;1.63;;;20.20;90.60;;;;;;5094834;28;20196;-77
2022/07/29 03:00:05;;;;;;;4.10;1.63;;;20.10;90.70;;;;;;5094356;28;20224;-77
2022/07/29 03:02:39;;;;;;;2.50;1.42;;;20.00;90.80;;;;;;5092141;28;20204;-77
2022/07/29 03:05:10;;;;;;;4.65;1.75;;;19.70;91.20;;;;;;5096002;28;20193;-77
2022/07/29 03:07:39;;;;;;;2.22;1.88;;;19.30;92.10;;;;;;5095453;28;20213;-77
2022/07/29 03:10:08;;;;;;;5.90;1.65;;;19.20;92.90;;;;;;5086124;28;20221;-77
2022/07/29 03:12:36;;;;;;;2.50;1.25;;;19.10;93.50;;;;;;5088715;28;20200;-77
2022/07/29 03:15:05;;;;;;;2.08;1.33;;;19.50;93.50;;;;;;5091666;28;20204;-77
2022/07/29 03:17:33;;;;;;;3.55;1.33;;;19.60;92.80;;;;;;5095619;28;20204;-78
2022/07/29 03:20:03;;;;;;;5.63;1.85;;;19.90;92.40;;;;;;5098110;28;20205;-78
2022/07/29 03:22:31;;;;;;;3.17;1.52;;;20.00;92.30;;;;;;5089473;28;20216;-77
2022/07/29 03:24:58;;;;;;;3.20;1.48;;;20.10;91.80;;;;;;5087377;28;20204;-78
2022/07/29 03:27:26;;;;;;;3.47;1.67;;;20.30;91.40;;;;;;5093274;28;20260;-78
2022/07/29 03:29:53;;;;;;;3.95;1.35;;;20.30;91.20;;;;;;5097909;28;20219;-78
2022/07/29 03:32:20;;;;;;;3.50;1.52;;;20.20;91.50;;;;;;5098240;28;20216;-78
2022/07/29 03:34:48;;;;;;;2.85;1.40;;;20.40;90.90;;;;;;5097991;28;20197;-78
2022/07/29 03:37:19;;;;;;;4.47;1.35;;;20.30;91.10;;;;;;5097092;28;20205;-77
2022/07/29 03:39:48;;;;;;;2.35;1.77;;;20.40;91.00;;;;;;5090948;28;20216;-78
2022/07/29 03:42:20;;;;;;;4.00;1.35;;;20.40;91.00;;;;;;5097109;28;20201;-78
2022/07/29 03:44:51;;;;;;;2.78;1.50;;;20.40;91.00;;;;;;5072354;28;20545;-78
2022/07/29 03:47:23;;;;;;;2.60;1.33;;;20.30;91.00;;;;;;5087847;28;20200;-78
2022/07/29 03:49:53;;;;;;;4.88;1.83;;;20.20;91.00;;;;;;5092628;28;20219;-78
2022/07/29 03:52:22;;;;;;;3.15;1.40;;;20.00;91.30;;;;;;5089901;28;20205;-78
2022/07/29 03:54:50;;;;;;;2.28;1.42;;;19.80;91.80;;;;;;5090595;28;20200;-78
2022/07/29 03:57:21;;;;;;;3.20;1.70;;;19.80;92.00;;;;;;5090824;28;20197;-77
2022/07/29 03:59:49;;;;;;;4.40;2.00;;;19.70;91.90;;;;;;5082588;28;20702;-78
2022/07/29 04:02:16;;;;;;;5.78;1.80;;;19.80;91.90;;;;;;5079298;28;20205;-78
2022/07/29 04:04:44;;;;;;;3.22;1.40;;;19.90;91.70;;;;;;5086723;28;20200;-78
2022/07/29 04:07:13;;;;;;;1.92;1.23;;;19.80;91.70;;;;;;5089730;28;20204;-78
2022/07/29 04:09:43;;;;;;;4.50;2.15;;;19.90;91.60;;;;;;5089592;28;20208;-78
2022/07/29 04:12:10;;;;;;;4.47;1.65;;;20.00;91.40;;;;;;5080486;28;20189;-78
2022/07/29 04:14:38;;;;;;;3.35;1.50;;;19.90;91.30;;;;;;5091175;28;20201;-78
2022/07/29 04:17:06;;;;;;;3.47;1.55;;;19.90;91.30;;;;;;5089110;28;20216;-78
2022/07/29 04:19:33;;;;;;;3.38;1.67;;;19.90;91.30;;;;;;5090168;28;20195;-78
2022/07/29 04:22:01;;;;;;;3.17;1.63;;;20.00;91.50;;;;;;5090315;28;20663;-78
2022/07/29 04:24:32;;;;;;;2.55;1.50;;;20.00;91.30;;;;;;5076987;28;20655;-78
2022/07/29 04:27:01;;;;;;;4.43;1.73;;;20.00;91.50;;;;;;5089676;28;20204;-78
2022/07/29 04:29:28;;;;;;;2.20;1.40;;;19.90;91.40;;;;;;5090426;28;20705;-77
2022/07/29 04:31:56;;;;;;;2.78;1.98;;;19.70;91.60;;;;;;5085359;28;20209;-77
2022/07/29 04:34:23;;;;;;;1.98;1.58;;;19.70;92.00;;;;;;5089972;28;20211;-77
2022/07/29 04:36:50;;;;;;;3.45;1.73;;;19.70;92.10;;;;;;5087734;28;20201;-77
2022/07/29 04:39:18;;;;;;;4.80;2.13;;;19.60;93.00;;;;;;5090713;28;20201;-77
2022/07/29 04:41:47;;;;;;;2.75;1.70;;;19.50;94.20;;;;;;5079736;28;20232;-77
2022/07/29 04:44:15;;;;;;;3.13;2.15;;;19.50;95.70;;;;;;5076040;28;20193;-77
2022/07/29 04:47:08;;;;;;;6.00;2.17;;;19.40;96.60;;;;;;5092987;28;20204;-77
2022/07/29 04:49:38;;;;;;;6.10;2.20;;;19.30;98.00;;;;;;5082023;28;20210;-77
2022/07/29 04:52:06;;;;;;;4.03;1.88;;;18.90;99.90;;;;;;5070844;28;20208;-77
2022/07/29 04:54:34;;;;;;;4.55;2.42;;;18.70;99.90;;;;;;5078508;28;20197;-77
2022/07/29 04:57:01;;;;;;;2.63;1.85;;;18.40;99.90;;;;;;5080313;28;20576;-79
2022/07/29 04:59:30;;;;;;;7.22;2.47;;;18.60;99.90;;;;;;5082826;28;20203;-77
2022/07/29 05:01:57;;;;;;;5.35;2.70;;;18.50;99.90;;;;;;5080767;28;20204;-77
2022/07/29 05:04:25;;;;;;;6.10;2.80;;;18.70;99.90;;;;;;5087616;28;20208;-77
2022/07/29 05:06:52;;;;;;;6.38;2.38;;;18.70;99.90;;;;;;5088471;28;20212;-77
2022/07/29 05:09:20;;;;;;;6.28;2.50;;;18.90;99.90;;;;;;5087285;28;20235;-77
2022/07/29 05:11:47;;;;;;;3.35;2.08;;;18.70;99.90;;;;;;5084364;28;20225;-77
2022/07/29 05:14:16;;;;;;;3.22;2.00;;;18.70;99.90;;;;;;5083267;28;20202;-77
2022/07/29 05:16:44;;;;;;;3.05;2.00;;;19.00;99.90;;;;;;5082157;28;20193;-77
2022/07/29 05:19:12;;;;;;;2.97;2.30;;;19.10;99.90;;;;;;5075709;28;20192;-77
2022/07/29 05:21:39;;;;;;;3.53;2.20;;;18.90;99.90;;;;;;5077578;28;20575;-77
2022/07/29 05:24:07;;;;;;;5.47;2.17;;;19.20;99.90;;;;;;5085356;28;20206;-77
2022/07/29 05:26:34;;;;;;;3.78;2.05;;;19.40;99.90;;;;;;5088054;28;20200;-77
2022/07/29 05:29:02;;;;;;;2.88;2.45;;;19.20;99.90;;;;;;5087017;28;20224;-77
2022/07/29 05:31:30;;;;;;;2.70;2.50;;;19.00;99.90;;;;;;5085398;28;20213;-77
2022/07/29 05:33:59;;;;;;;3.65;2.40;;;18.50;99.90;;;;;;5085299;28;20208;-77
2022/07/29 05:36:26;;;;;;;3.08;2.40;;;18.20;99.90;;;;;;5086583;28;20205;-77
2022/07/29 05:38:54;;;;;;;3.28;2.38;;;18.30;99.90;;;;;;5086477;28;20552;-77
2022/07/29 05:41:21;;;;;;;4.07;2.33;;;18.60;99.90;;;;;;5086104;28;20239;-77
2022/07/29 05:43:49;;;;;;;3.80;2.17;;;18.30;99.90;;;;;;5084011;28;20678;-77
2022/07/29 05:46:16;;;;;;;3.92;2.58;;;18.20;99.90;;;;;;5080995;28;20197;-77
2022/07/29 05:48:44;;;;;;;4.53;2.28;;;18.80;99.90;;;;;;5088552;28;20773;-78
2022/07/29 05:51:13;;;;;;;4.00;2.03;;;19.20;99.90;;;;;;5083802;28;20227;-78
2022/07/29 05:53:40;;;;;;;2.67;2.30;;;19.40;99.90;;;;;;5081177;28;20216;-77
2022/07/29 05:56:08;;;;;;;5.22;2.45;;;19.60;99.90;;;;;;5085042;28;20578;-77
2022/07/29 05:58:36;;;;;;;4.68;2.95;;;19.60;99.90;;;;;;5088840;28;20205;-77
2022/07/29 06:01:04;;;;;;;3.92;2.42;;;19.50;99.90;;;;;;5087443;28;20221;-77
2022/07/29 06:03:31;;;;;;;4.20;2.60;;;19.40;99.90;;;;;;5085104;28;20197;-77
2022/07/29 06:05:59;;;;;;;4.38;2.85;;;19.10;99.90;;;;;;5086902;28;20663;-78
2022/07/29 06:08:27;;;;;;;3.30;2.35;;;18.90;99.90;;;;;;5087120;28;20204;-77
2022/07/29 06:10:55;;;;;;;4.97;2.20;;;18.70;99.90;;;;;;5085060;28;20220;-77
2022/07/29 06:13:22;;;;;;;3.92;2.60;;;19.10;99.90;;;;;;5083595;28;20206;-77
2022/07/29 06:15:50;;;;;;;4.63;2.50;;;19.10;99.90;;;;;;5092768;28;20216;-77
2022/07/29 06:18:18;;;;;;;4.53;2.55;;;19.20;99.90;;;;;;5087883;28;20671;-77
2022/07/29 06:20:45;;;;;;;5.45;2.80;;;19.10;99.90;;;;;;5086174;28;20216;-77
2022/07/29 06:23:30;;;;;;;3.00;2.28;;;19.10;99.90;;;;;;5081795;28;21239;-79
2022/07/29 06:25:57;;;;;;;4.07;2.88;;;19.20;99.90;;;;;;5077567;28;20197;-79
2022/07/29 06:28:24;;;;;;;2.90;2.63;;;18.70;99.90;;;;;;5093200;28;20216;-78
2022/07/29 06:30:52;;;;;;;3.78;2.28;;;18.60;99.90;;;;;;5088453;28;20589;-75
2022/07/29 06:33:44;;;;;;;5.32;2.80;;;18.50;99.90;;;;;;5087834;28;20205;-78
2022/07/29 06:36:12;;;;;;;5.90;2.60;;;18.10;99.90;;;;;;5088623;28;20201;-78
2022/07/29 06:38:40;;;;;;;2.90;2.30;;;18.30;99.90;;;;;;5076610;28;20216;-79
2022/07/29 06:41:12;;;;;;;4.28;3.15;;;18.40;99.90;;;;;;5085033;28;20236;-79
2022/07/29 06:43:42;;;;;;;3.35;2.40;;;18.70;99.90;;;;;;5080551;28;20204;-79
2022/07/29 06:46:11;;;;;;;3.38;2.35;;;18.80;99.90;;;;;;5072169;28;20198;-76
2022/07/29 06:48:39;;;;;;;4.45;2.35;;;18.80;99.90;;;;;;5074689;28;20205;-76
2022/07/29 06:51:07;;;;;;;6.47;2.80;;;18.80;99.90;;;;;;5076834;28;20209;-75
2022/07/29 06:53:35;;;;;;;5.35;3.13;;;18.90;99.90;;;;;;5080289;28;20209;-75
2022/07/29 06:56:08;;;;;;;4.00;2.65;;;18.90;99.90;;;;;;5085104;28;20198;-75
2022/07/29 06:58:36;;;;;;;4.55;2.40;;;19.00;99.90;;;;;;5078500;28;20236;-78
2022/07/29 07:01:05;;;;;;;4.57;2.50;;;19.10;99.90;;;;;;5087180;28;20231;-76
2022/07/29 07:03:33;;;;;;;3.15;2.17;;;19.00;99.90;;;;;;5082135;28;20202;-76
2022/07/29 07:06:00;;;;;;;3.30;2.13;;;18.80;99.90;;;;;;5086890;28;20538;-75
2022/07/29 07:08:28;;;;;;;5.47;2.90;;;18.70;99.90;;;;;;5087642;28;20215;-76
2022/07/29 07:10:56;;;;;;;4.13;2.50;;;18.60;99.90;;;;;;5090182;28;20220;-76
2022/07/29 07:13:26;;;;;;;5.95;2.63;;;18.80;99.90;;;;;;5086245;28;20220;-75
2022/07/29 07:15:53;;;;;;;3.90;2.60;;;18.90;99.90;;;;;;5087198;28;20208;-74
2022/07/29 07:18:21;;;;;;;2.85;2.60;;;18.90;99.90;;;;;;5082242;28;20201;-74
2022/07/29 07:20:48;;;;;;;6.10;2.50;;;18.90;99.90;;;;;;5076930;28;20217;-76
2022/07/29 07:23:16;;;;;;;4.32;2.45;;;19.10;99.90;;;;;;5074128;28;20193;-76
2022/07/29 07:25:43;;;;;;;4.68;2.35;;;19.40;99.90;;;;;;5080395;28;20204;-75
2022/07/29 07:28:12;;;;;;;4.47;2.20;;;19.60;99.90;;;;;;5083812;28;20206;-74
2022/07/29 07:30:41;;;;;;;3.58;1.92;;;19.90;99.90;;;;;;5085891;28;20216;-75
2022/07/29 07:33:09;;;;;;;4.90;2.28;;;20.00;99.90;;;;;;5092314;28;20197;-75
2022/07/29 07:35:36;;;;;;;4.30;2.13;;;20.30;99.90;;;;;;5091174;28;20204;-75
2022/07/29 07:38:05;;;;;;;2.42;2.15;;;20.50;99.90;;;;;;5084724;28;20743;-76
2022/07/29 07:40:33;;;;;;;4.93;2.45;;;20.50;99.90;;;;;;5082162;28;20699;-75
2022/07/29 07:43:00;;;;;;;2.50;1.88;;;20.60;99.90;;;;;;5083685;28;20197;-75
2022/07/29 07:45:28;;;;;;;3.17;2.45;;;20.60;99.90;;;;;;5082264;28;20216;-75
2022/07/29 07:47:57;;;;;;;6.88;3.00;;;20.70;99.90;;;;;;5084701;28;20209;-75
2022/07/29 07:50:25;;;;;;;5.05;2.30;;;20.60;99.90;;;;;;5075868;28;20225;-76
2022/07/29 07:52:57;;;;;;;4.60;2.50;;;20.70;99.90;;;;;;5075850;28;20201;-76
2022/07/29 07:55:25;;;;;;;6.80;2.55;;;20.70;99.90;;;;;;5076833;28;20210;-76
2022/07/29 07:57:53;;;;;;;3.10;2.53;;;20.80;99.90;;;;;;5088754;28;20193;-77
2022/07/29 08:00:21;;;;;;;5.05;2.22;;;20.50;99.90;;;;;;5085351;28;20224;-75
2022/07/29 08:03:15;;;;;;;3.58;2.50;;;20.70;99.90;;;;;;5150458;27;20676;-75
2022/07/29 08:05:43;;;;;;;5.68;3.00;;;20.80;99.90;;;;;;5134203;27;20198;-75
2022/07/29 08:08:10;;;;;;;4.25;2.20;;;20.90;99.90;;;;;;5140263;27;20202;-77
2022/07/29 08:10:53;;;;;;;4.25;2.10;;;20.90;99.90;;;;;;5128944;27;20660;-78
2022/07/29 08:13:21;;;;;;;6.13;2.60;;;20.90;99.90;;;;;;5112308;28;20205;-78
2022/07/29 08:15:57;;;;;;;3.97;2.72;;;20.90;99.90;;;;;;5112169;28;20188;-78
2022/07/29 08:18:26;;;;;;;3.20;2.42;;;20.90;99.90;;;;;;5111495;27;20684;-79
2022/07/29 08:20:54;;;;;;;3.97;3.00;;;20.80;99.90;;;;;;5114795;28;20211;-79
2022/07/29 08:23:22;;;;;;;6.82;2.80;;;20.70;99.90;;;;;;5107435;27;20557;-79
2022/07/29 08:25:50;;;;;;;4.85;3.38;;;20.40;99.90;;;;;;5109493;27;20284;-79
2022/07/29 08:28:19;;;;;;;4.22;3.22;;;20.20;99.90;;;;;;5109185;27;20206;-79
2022/07/29 08:30:46;;;;;;;5.68;3.22;;;20.00;99.90;;;;;;5118039;27;20222;-79
2022/07/29 08:33:14;;;;;;;6.70;3.53;;;19.90;99.90;;;;;;5112932;27;20199;-80
2022/07/29 08:35:42;;;;;;;6.20;2.90;;;19.90;99.90;;;;;;5125478;28;20196;-79
2022/07/29 08:38:10;;;;;;;5.10;3.80;;;20.00;99.90;;;;;;5127555;27;20643;-79
2022/07/29 08:40:37;;;;;;;6.60;3.53;;;20.00;99.90;;;;;;5128051;27;20672;-79
2022/07/29 08:43:06;;;;;;;4.72;3.40;;;19.80;99.90;;;;;;5120597;28;20215;-79
2022/07/29 08:45:44;;;;;;;5.35;3.70;;;19.80;99.90;;;;;;5123143;28;20210;-79
2022/07/29 08:48:12;;;;;;;3.25;2.80;;;19.80;99.90;;;;;;5110509;28;20676;-79
2022/07/29 08:50:43;;;;;;;5.15;2.78;;;19.90;99.90;;;;;;5111284;28;20219;-79
2022/07/29 08:53:12;;;;;;;4.07;3.15;;;19.90;99.90;;;;;;5117540;28;20650;-79
2022/07/29 08:55:43;;;;;;;6.72;4.00;;;20.10;99.90;;;;;;5109035;27;20196;-80
2022/07/29 08:58:10;;;;;;;6.43;3.33;;;20.10;99.90;;;;;;5128951;27;20203;-79
2022/07/29 09:00:42;;;;;;;4.95;3.63;;;20.10;99.90;;;;;;5118923;28;20231;-79
2022/07/29 09:03:13;;;;;;;6.90;3.97;;;20.20;99.90;;;;;;5107381;28;20577;-79
2022/07/29 09:05:43;;;;;;;6.75;4.18;;;20.10;99.90;;;;;;5109739;27;20200;-79
2022/07/29 09:08:11;;;;;;;5.80;3.88;;;20.20;99.90;;;;;;5128695;28;20191;-82
2022/07/29 09:10:39;;;;;;;4.88;3.80;;;20.20;99.90;;;;;;5116846;28;20227;-82
2022/07/29 09:13:07;;;;;;;5.85;3.50;;;20.20;99.90;;;;;;5126021;28;20215;-79
2022/07/29 09:15:34;;;;;;;5.85;3.58;;;20.20;99.90;;;;;;5113912;28;20196;-79
2022/07/29 09:18:02;;;;;;;8.45;4.70;;;20.20;99.90;;;;;;5098070;28;20200;-79
2022/07/29 09:21:57;;;;;;;5.03;3.70;;;20.10;99.90;;;;;;5098554;28;20231;-80
2022/07/29 09:23:19;;;;;;;9.20;4.00;;;20.20;99.90;;;;;;5115598;28;20238;-79
2022/07/29 09:25:46;;;;;;;4.55;3.65;;;20.10;99.90;;;;;;5101402;27;20199;-79
2022/07/29 09:28:16;;;;;;;4.78;3.85;;;19.90;99.90;;;;;;5105985;28;20203;-80
2022/07/29 09:30:52;;;;;;;7.55;3.72;;;19.90;99.90;;;;;;5098297;28;20212;-79
2022/07/29 09:33:20;;;;;;;8.05;3.90;;;19.90;99.90;;;;;;5099731;28;20196;-79
2022/07/29 09:35:59;;;;;;;6.63;4.03;;;19.70;99.90;;;;;;5094658;27;20215;-79
2022/07/29 09:38:28;;;;;;;6.07;4.20;;;19.60;99.90;;;;;;5097922;28;20188;-79
2022/07/29 09:40:58;;;;;;;7.03;4.18;;;19.80;99.90;;;;;;5099709;28;20220;-79
2022/07/29 09:43:25;;;;;;;5.80;4.30;;;19.70;99.90;;;;;;5104762;28;20213;-79
2022/07/29 09:45:53;;;;;;;6.75;4.18;;;19.80;99.90;;;;;;5115144;27;20196;-79
2022/07/29 09:48:22;;;;;;;8.00;4.15;;;19.70;99.90;;;;;;5086885;28;20196;-79
2022/07/29 09:50:50;;;;;;;6.18;3.42;;;19.60;99.90;;;;;;5118150;27;20231;-79
2022/07/29 09:53:39;;;;;;;5.50;3.10;;;19.60;99.90;;;;;;5100298;28;20188;-79
2022/07/29 09:56:07;;;;;;;3.65;2.95;;;19.60;99.90;;;;;;5096842;28;20211;-79
2022/07/29 09:58:34;;;;;;;6.88;3.50;;;19.60;99.90;;;;;;5111971;28;20200;-79
2022/07/29 10:01:03;;;;;;;4.78;2.92;;;19.50;99.90;;;;;;5102795;27;20214;-79
2022/07/29 10:03:30;;;;;;;4.10;3.70;;;19.50;99.90;;;;;;5102821;28;20223;-79
2022/07/29 10:06:08;;;;;;;6.75;3.97;;;19.60;99.90;;;;;;5101789;28;20567;-79
2022/07/29 10:08:37;;;;;;;5.78;3.28;;;19.70;99.90;;;;;;5096696;28;20203;-81
2022/07/29 10:11:11;;;;;;;6.50;3.08;;;19.80;99.90;;;;;;5099233;28;20220;-79
2022/07/29 10:13:40;;;;;;;5.28;3.30;;;19.80;99.90;;;;;;5094303;28;20200;-79
2022/07/29 10:16:08;;;;;;;7.55;3.40;;;19.70;99.90;;;;;;5087276;28;20564;-79
2022/07/29 10:18:35;;;;;;;3.90;3.50;;;19.80;99.90;;;;;;5107808;28;20204;-79
2022/07/29 10:21:03;;;;;;;4.93;3.35;;;19.70;99.90;;;;;;5091334;28;20220;-79
2022/07/29 10:23:31;;;;;;;5.03;3.28;;;19.60;99.90;;;;;;5101844;28;20216;-79
2022/07/29 10:26:00;;;;;;;5.63;4.15;;;19.70;99.90;;;;;;5097415;28;20196;-79
2022/07/29 10:28:28;;;;;;;4.47;3.65;;;19.70;99.90;;;;;;5103292;27;20196;-79
2022/07/29 10:31:06;;;;;;;5.40;3.63;;;19.60;99.90;;;;;;5104510;28;20583;-79
2022/07/29 10:33:46;;;;;;;5.45;3.30;;;19.50;99.90;;;;;;5114508;27;20192;-79
2022/07/29 10:36:28;;;;;;;4.68;3.65;;;19.60;99.90;;;;;;5086001;27;20203;-79
2022/07/29 10:39:10;;;;;;;5.70;3.35;;;19.50;99.90;;;;;;5104085;28;20196;-79
2022/07/29 10:42:16;;;;;;;4.18;2.70;;;19.50;99.90;;;;;;5097931;28;20243;-80
2022/07/29 10:44:45;;;;;;;12.63;5.57;;;19.90;99.90;;;;;;5113798;27;20199;-81
2022/07/29 10:47:22;;;;;;;8.45;4.07;;;19.90;99.90;;;;;;5101718;28;20208;-81
2022/07/29 10:49:58;;;;;;;8.77;4.22;;;20.10;99.90;;;;;;5100842;27;20223;-80
2022/07/29 10:52:27;;;;;;;9.13;4.03;;;20.00;99.90;;;;;;5092116;28;20199;-80
2022/07/29 10:54:58;;;;;;;7.75;3.20;;;20.00;99.90;;;;;;5101057;27;20196;-81
2022/07/29 10:57:29;;;;;;;6.28;3.60;;;20.20;99.90;;;;;;5103357;28;20207;-81
2022/07/29 11:00:32;;;;;;;6.18;3.28;;;20.30;99.90;;;;;;5108570;27;20227;-81
2022/07/29 11:03:00;;;;;;;4.28;2.67;;;20.50;99.90;;;;;;5105801;27;20230;-80
2022/07/29 11:05:31;;;;;;;7.93;3.38;;;20.40;99.90;;;;;;5096619;28;20208;-80
2022/07/29 11:08:19;;;;;;;4.78;3.25;;;20.10;99.90;;;;;;5093480;28;20215;-80
2022/07/29 11:10:49;;;;;;;6.40;3.47;;;20.20;99.90;;;;;;5092833;28;20216;-80
2022/07/29 11:13:51;;;;;;;7.97;3.80;;;20.10;99.90;;;;;;5103474;28;20547;-80
2022/07/29 11:16:21;;;;;;;4.18;3.30;;;19.80;99.90;;;;;;5090172;28;20210;-79
2022/07/29 11:19:21;;;;;;;7.07;4.32;;;19.90;99.90;;;;;;5093592;28;20196;-78
2022/07/29 11:21:49;;;;;;;5.07;3.15;;;19.80;99.90;;;;;;5092050;28;20224;-79
2022/07/29 11:24:20;;;;;;;5.75;3.17;;;20.20;99.90;;;;;;5101376;28;20224;-79
2022/07/29 11:27:09;;;;;;;2.67;2.47;;;20.40;99.90;;;;;;5110451;28;20200;-79
2022/07/29 11:29:41;;;;;;;6.78;3.10;;;20.60;99.90;;;;;;5109964;28;20200;-79
2022/07/29 11:32:14;;;;;;;5.38;3.10;;;20.60;99.90;;;;;;5100445;28;20601;-79
2022/07/29 11:34:41;;;;;;;2.63;2.20;;;20.70;99.90;;;;;;5101095;28;20192;-79
2022/07/29 11:37:21;;;;;;;5.70;3.10;;;20.70;99.90;;;;;;5092694;28;20219;-79
2022/07/29 11:40:10;;;;;;;3.75;2.63;;;20.70;99.90;;;;;;5092036;28;20223;-79
2022/07/29 11:42:55;;;;;;;4.85;2.70;;;20.90;99.90;;;;;;5095863;28;20196;-79
2022/07/29 11:45:31;;;;;;;5.88;3.35;;;21.00;99.90;;;;;;5104101;28;20196;-79
2022/07/29 11:48:00;;;;;;;7.30;3.28;;;21.10;99.90;;;;;;5109800;28;20636;-79
2022/07/29 11:50:31;;;;;;;5.50;3.33;;;20.80;99.90;;;;;;5095334;28;20236;-79
2022/07/29 11:52:59;;;;;;;4.78;3.05;;;20.50;99.90;;;;;;5090447;28;20666;-79
2022/07/29 11:55:27;;;;;;;3.95;2.60;;;20.70;99.90;;;;;;5092239;28;20588;-79
2022/07/29 11:57:58;;;;;;;6.15;2.90;;;21.00;99.90;;;;;;5092221;28;20219;-78
2022/07/29 12:00:30;;;;;;;3.53;2.88;;;21.20;99.90;;;;;;5092478;28;20546;-79
2022/07/29 12:03:01;;;;;;;3.53;2.60;;;21.20;99.90;;;;;;5098159;28;20207;-78
2022/07/29 12:05:38;;;;;;;3.47;2.53;;;21.00;99.90;;;;;;5098647;28;20211;-78
2022/07/29 12:08:11;;;;;;;6.95;3.35;;;21.20;99.90;;;;;;5072148;28;20200;-78
2022/07/29 12:10:39;;;;;;;4.35;2.88;;;21.20;99.90;;;;;;5080234;28;20239;-78
2022/07/29 12:13:07;;;;;;;4.28;3.20;;;20.90;99.90;;;;;;5101239;28;20219;-78
2022/07/29 12:15:36;;;;;;;4.30;2.65;;;21.20;99.90;;;;;;5110399;28;20188;-79
2022/07/29 12:18:17;;;;;;;5.07;3.30;;;21.40;99.90;;;;;;5092227;28;20203;-78
2022/07/29 12:20:46;;;;;;;5.20;2.90;;;21.50;99.90;;;;;;5110132;28;20207;-78
2022/07/29 12:23:14;;;;;;;6.85;3.13;;;21.40;99.90;;;;;;5108441;28;20208;-78
2022/07/29 12:25:44;;;;;;;3.50;2.92;;;21.30;99.90;;;;;;5091533;28;20207;-79
2022/07/29 12:28:15;;;;;;;4.82;2.78;;;21.30;99.90;;;;;;5111229;28;20203;-78
2022/07/29 12:30:47;;;;;;;4.13;2.60;;;21.30;99.90;;;;;;5110751;28;20216;-78
2022/07/29 12:33:18;;;;;;;4.32;2.63;;;21.60;99.90;;;;;;5103700;28;20194;-79
2022/07/29 12:35:47;;;;;;;5.75;2.70;;;21.80;99.90;;;;;;5096126;28;20193;-79
2022/07/29 12:38:15;;;;;;;5.07;3.17;;;21.90;99.90;;;;;;5096366;28;20199;-79
2022/07/29 12:40:44;;;;;;;5.85;3.13;;;21.80;99.90;;;;;;5092143;28;20704;-79
2022/07/29 12:43:13;;;;;;;4.85;3.00;;;21.80;99.90;;;;;;5103370;28;20224;-79
2022/07/29 12:45:44;;;;;;;3.72;2.42;;;22.10;99.90;;;;;;5110254;28;20188;-79
2022/07/29 12:48:12;;;;;;;5.18;3.28;;;22.30;99.90;;;;;;5102920;28;20211;-79
2022/07/29 12:50:57;;;;;;;5.63;2.90;;;22.40;99.90;;;;;;5096545;28;20317;-79
2022/07/29 12:53:26;;;;;;;7.28;3.20;;;22.80;99.00;;;;;;5096142;28;20196;-79
2022/07/29 12:55:55;;;;;;;4.13;3.05;;;22.90;97.60;;;;;;5096410;28;20553;-79
2022/07/29 12:58:31;;;;;;;8.52;3.15;;;23.20;97.00;;;;;;5114351;28;20204;-79
2022/07/29 13:01:05;;;;;;;4.30;3.00;;;23.30;97.20;;;;;;5108258;27;20218;-79
2022/07/29 13:03:51;;;;;;;4.80;2.78;;;23.50;96.60;;;;;;5106082;28;20216;-79
2022/07/29 13:06:39;;;;;;;5.22;2.63;;;23.40;95.50;;;;;;5085973;28;20189;-79